sensor_id;sensor_type;location;lat;lon;timestamp;temperature;humidity
4908;DHT22;2469;51.540;7.364;2022-07-29T00:00:21;23.90;67.60
4908;DHT22;2469;51.540;7.364;2022-07-29T00:02:49;24.10;67.80
4908;DHT22;2469;51.540;7.364;2022-07-29T00:05:17;24.00;61.80
4908;DHT22;2469;51.540;7.364;2022-07-29T00:07:45;24.00;63.00
4908;DHT22;2469;51.540;7.364;2022-07-29T00:10:15;23.90;63.30
4908;DHT22;2469;51.540;7.364;2022-07-29T00:12:43;24.10;66.90
4908;DHT22;2469;51.540;7.364;2022-07-29T00:15:11;24.10;61.80
4908;DHT22;2469;51.540;7.364;2022-07-29T00:17:40;23.90;59.00
4908;DHT22;2469;51.540;7.364;2022-07-29T00:20:09;23.80;65.20
4908;DHT22;2469;51.540;7.364;2022-07-29T00:22:37;23.90;67.70
4908;DHT22;2469;51.540;7.364;2022-07-29T00:25:07;23.90;60.50
4908;DHT22;2469;51.540;7.364;2022-07-29T00:27:36;23.70;58.70
4908;DHT22;2469;51.540;7.364;2022-07-29T00:30:05;23.50;66.00
4908;DHT22;2469;51.540;7.364;2022-07-29T00:32:34;23.60;66.00
4908;DHT22;2469;51.540;7.364;2022-07-29T00:35:02;23.50;61.40
4908;DHT22;2469;51.540;7.364;2022-07-29T00:37:47;23.60;63.80
4908;DHT22;2469;51.540;7.364;2022-07-29T00:40:16;23.50;64.30
4908;DHT22;2469;51.540;7.364;2022-07-29T00:42:51;23.60;63.10
4908;DHT22;2469;51.540;7.364;2022-07-29T00:45:19;23.60;62.50
4908;DHT22;2469;51.540;7.364;2022-07-29T00:47:48;23.50;64.40
4908;DHT22;2469;51.540;7.364;2022-07-29T00:50:16;23.50;64.60
4908;DHT22;2469;51.540;7.364;2022-07-29T00:52:45;23.40;61.10
4908;DHT22;2469;51.540;7.364;2022-07-29T00:55:14;23.30;67.00
4908;DHT22;2469;51.540;7.364;2022-07-29T00:57:44;23.40;65.80
4908;DHT22;2469;51.540;7.364;2022-07-29T01:00:16;23.50;68.20
4908;DHT22;2469;51.540;7.364;2022-07-29T01:02:45;23.50;63.10
4908;DHT22;2469;51.540;7.364;2022-07-29T01:05:16;23.50;66.10
4908;DHT22;2469;51.540;7.364;2022-07-29T01:07:46;23.40;62.80
4908;DHT22;2469;51.540;7.364;2022-07-29T01:10:16;23.50;65.60
4908;DHT22;2469;51.540;7.364;2022-07-29T01:12:46;23.50;65.80
4908;DHT22;2469;51.540;7.364;2022-07-29T01:15:16;23.60;66.90
4908;DHT22;2469;51.540;7.364;2022-07-29T01:17:45;23.70;68.20
4908;DHT22;2469;51.540;7.364;2022-07-29T01:20:25;23.70;66.90
4908;DHT22;2469;51.540;7.364;2022-07-29T01:23:16;23.70;68.00
4908;DHT22;2469;51.540;7.364;2022-07-29T01:26:02;23.80;68.90
4908;DHT22;2469;51.540;7.364;2022-07-29T01:28:49;23.90;67.10
4908;DHT22;2469;51.540;7.364;2022-07-29T01:31:25;23.90;68.00
4908;DHT22;2469;51.540;7.364;2022-07-29T01:34:00;23.90;67.80
4908;DHT22;2469;51.540;7.364;2022-07-29T01:36:32;23.90;67.80
4908;DHT22;2469;51.540;7.364;2022-07-29T01:39:06;23.90;67.40
4908;DHT22;2469;51.540;7.364;2022-07-29T01:41:38;23.90;67.50
4908;DHT22;2469;51.540;7.364;2022-07-29T01:44:14;23.90;65.60
4908;DHT22;2469;51.540;7.364;2022-07-29T01:46:50;23.90;67.90
4908;DHT22;2469;51.540;7.364;2022-07-29T01:49:24;23.90;66.40
4908;DHT22;2469;51.540;7.364;2022-07-29T01:51:59;23.80;65.50
4908;DHT22;2469;51.540;7.364;2022-07-29T01:54:32;23.90;67.80
4908;DHT22;2469;51.540;7.364;2022-07-29T01:57:03;23.90;67.90
4908;DHT22;2469;51.540;7.364;2022-07-29T01:59:36;23.80;67.70
4908;DHT22;2469;51.540;7.364;2022-07-29T02:02:06;23.80;66.70
4908;DHT22;2469;51.540;7.364;2022-07-29T02:04:36;23.60;66.40
4908;DHT22;2469;51.540;7.364;2022-07-29T02:07:06;23.60;67.60
4908;DHT22;2469;51.540;7.364;2022-07-29T02:09:36;23.60;67.00
4908;DHT22;2469;51.540;7.364;2022-07-29T02:12:06;23.60;68.00
4908;DHT22;2469;51.540;7.364;2022-07-29T02:14:38;23.60;65.70
4908;DHT22;2469;51.540;7.364;2022-07-29T02:17:07;23.60;67.50
4908;DHT22;2469;51.540;7.364;2022-07-29T02:19:37;23.60;68.20
4908;DHT22;2469;51.540;7.364;2022-07-29T02:22:06;23.60;68.10
4908;DHT22;2469;51.540;7.364;2022-07-29T02:24:36;23.60;67.50
4908;DHT22;2469;51.540;7.364;2022-07-29T02:27:04;23.60;67.40
4908;DHT22;2469;51.540;7.364;2022-07-29T02:29:35;23.50;66.90
4908;DHT22;2469;51.540;7.364;2022-07-29T02:32:05;23.40;66.00
4908;DHT22;2469;51.540;7.364;2022-07-29T02:34:36;23.30;66.20
4908;DHT22;2469;51.540;7.364;2022-07-29T02:37:05;23.30;67.90
4908;DHT22;2469;51.540;7.364;2022-07-29T02:39:36;23.30;68.40
4908;DHT22;2469;51.540;7.364;2022-07-29T02:42:07;23.30;68.60
4908;DHT22;2469;51.540;7.364;2022-07-29T02:44:37;23.30;68.50
4908;DHT22;2469;51.540;7.364;2022-07-29T02:47:12;23.30;68.50
4908;DHT22;2469;51.540;7.364;2022-07-29T02:49:46;23.40;68.30
4908;DHT22;2469;51.540;7.364;2022-07-29T02:52:21;23.40;69.00
4908;DHT22;2469;51.540;7.364;2022-07-29T02:54:55;23.40;69.00
4908;DHT22;2469;51.540;7.364;2022-07-29T02:57:30;23.50;68.70
4908;DHT22;2469;51.540;7.364;2022-07-29T03:00:04;23.60;69.00
4908;DHT22;2469;51.540;7.364;2022-07-29T03:02:35;23.60;67.90
4908;DHT22;2469;51.540;7.364;2022-07-29T03:05:06;23.50;66.80
4908;DHT22;2469;51.540;7.364;2022-07-29T03:07:36;23.30;63.40
4908;DHT22;2469;51.540;7.364;2022-07-29T03:10:06;23.20;66.70
4908;DHT22;2469;51.540;7.364;2022-07-29T03:12:40;23.20;67.20
4908;DHT22;2469;51.540;7.364;2022-07-29T03:15:10;23.20;67.80
4908;DHT22;2469;51.540;7.364;2022-07-29T03:17:39;23.10;68.40
4908;DHT22;2469;51.540;7.364;2022-07-29T03:20:09;23.20;69.20
4908;DHT22;2469;51.540;7.364;2022-07-29T03:22:39;23.20;68.90
4908;DHT22;2469;51.540;7.364;2022-07-29T03:25:11;23.20;69.10
4908;DHT22;2469;51.540;7.364;2022-07-29T03:27:39;23.20;68.70
4908;DHT22;2469;51.540;7.364;2022-07-29T03:30:08;23.10;68.40
4908;DHT22;2469;51.540;7.364;2022-07-29T03:32:38;23.10;69.10
4908;DHT22;2469;51.540;7.364;2022-07-29T03:35:07;23.20;69.50
4908;DHT22;2469;51.540;7.364;2022-07-29T03:37:36;23.20;68.60
4908;DHT22;2469;51.540;7.364;2022-07-29T03:40:07;23.10;67.80
4908;DHT22;2469;51.540;7.364;2022-07-29T03:42:40;23.20;69.20
4908;DHT22;2469;51.540;7.364;2022-07-29T03:45:10;23.20;68.30
4908;DHT22;2469;51.540;7.364;2022-07-29T03:47:45;23.40;69.30
4908;DHT22;2469;51.540;7.364;2022-07-29T03:50:18;23.50;69.10
4908;DHT22;2469;51.540;7.364;2022-07-29T03:52:48;23.60;68.50
4908;DHT22;2469;51.540;7.364;2022-07-29T03:55:17;23.60;68.20
4908;DHT22;2469;51.540;7.364;2022-07-29T03:57:45;23.60;68.50
4908;DHT22;2469;51.540;7.364;2022-07-29T04:00:14;23.60;66.50
4908;DHT22;2469;51.540;7.364;2022-07-29T04:02:44;23.60;68.50
4908;DHT22;2469;51.540;7.364;2022-07-29T04:05:16;23.50;68.40
4908;DHT22;2469;51.540;7.364;2022-07-29T04:07:44;23.50;68.70
4908;DHT22;2469;51.540;7.364;2022-07-29T04:10:13;23.60;68.70
4908;DHT22;2469;51.540;7.364;2022-07-29T04:12:42;23.80;67.80
4908;DHT22;2469;51.540;7.364;2022-07-29T04:15:10;23.80;67.90
4908;DHT22;2469;51.540;7.364;2022-07-29T04:17:39;23.90;64.80
4908;DHT22;2469;51.540;7.364;2022-07-29T04:20:09;23.90;67.70
4908;DHT22;2469;51.540;7.364;2022-07-29T04:22:39;23.90;67.70
4908;DHT22;2469;51.540;7.364;2022-07-29T04:25:08;24.10;67.60
4908;DHT22;2469;51.540;7.364;2022-07-29T04:27:36;24.20;67.60
4908;DHT22;2469;51.540;7.364;2022-07-29T04:30:24;24.20;67.50
4908;DHT22;2469;51.540;7.364;2022-07-29T04:32:52;24.30;67.60
4908;DHT22;2469;51.540;7.364;2022-07-29T04:35:21;24.30;67.50
4908;DHT22;2469;51.540;7.364;2022-07-29T04:37:49;24.30;67.50
4908;DHT22;2469;51.540;7.364;2022-07-29T04:40:17;24.20;66.20
4908;DHT22;2469;51.540;7.364;2022-07-29T04:42:46;24.30;67.50
4908;DHT22;2469;51.540;7.364;2022-07-29T04:45:15;24.30;67.50
4908;DHT22;2469;51.540;7.364;2022-07-29T04:47:48;24.20;67.50
4908;DHT22;2469;51.540;7.364;2022-07-29T04:50:16;24.30;67.50
4908;DHT22;2469;51.540;7.364;2022-07-29T04:52:45;24.30;67.60
4908;DHT22;2469;51.540;7.364;2022-07-29T04:55:13;24.20;67.40
4908;DHT22;2469;51.540;7.364;2022-07-29T04:57:41;24.30;67.60
4908;DHT22;2469;51.540;7.364;2022-07-29T05:00:11;24.30;67.80
4908;DHT22;2469;51.540;7.364;2022-07-29T05:02:39;24.10;67.60
4908;DHT22;2469;51.540;7.364;2022-07-29T05:05:07;24.00;67.70
4908;DHT22;2469;51.540;7.364;2022-07-29T05:07:35;24.10;67.80
4908;DHT22;2469;51.540;7.364;2022-07-29T05:10:05;24.10;68.10
4908;DHT22;2469;51.540;7.364;2022-07-29T05:12:33;24.10;68.00
4908;DHT22;2469;51.540;7.364;2022-07-29T05:15:02;24.10;67.80
4908;DHT22;2469;51.540;7.364;2022-07-29T05:17:30;24.00;68.00
4908;DHT22;2469;51.540;7.364;2022-07-29T05:19:58;24.00;68.00
4908;DHT22;2469;51.540;7.364;2022-07-29T05:22:25;24.20;68.20
4908;DHT22;2469;51.540;7.364;2022-07-29T05:24:53;24.10;68.10
4908;DHT22;2469;51.540;7.364;2022-07-29T05:27:23;24.10;67.90
4908;DHT22;2469;51.540;7.364;2022-07-29T05:29:51;24.20;68.10
4908;DHT22;2469;51.540;7.364;2022-07-29T05:32:19;23.90;68.90
4908;DHT22;2469;51.540;7.364;2022-07-29T05:34:47;23.30;70.20
4908;DHT22;2469;51.540;7.364;2022-07-29T05:37:18;23.00;71.10
4908;DHT22;2469;51.540;7.364;2022-07-29T05:39:46;22.60;71.30
4908;DHT22;2469;51.540;7.364;2022-07-29T05:42:23;22.60;72.80
4908;DHT22;2469;51.540;7.364;2022-07-29T05:44:51;22.80;74.10
4908;DHT22;2469;51.540;7.364;2022-07-29T05:47:19;22.60;73.90
4908;DHT22;2469;51.540;7.364;2022-07-29T05:49:47;22.10;75.10
4908;DHT22;2469;51.540;7.364;2022-07-29T05:52:15;21.20;78.70
4908;DHT22;2469;51.540;7.364;2022-07-29T05:54:43;20.90;81.30
4908;DHT22;2469;51.540;7.364;2022-07-29T05:57:15;21.30;82.80
4908;DHT22;2469;51.540;7.364;2022-07-29T05:59:45;21.70;82.50
4908;DHT22;2469;51.540;7.364;2022-07-29T06:02:13;21.70;81.00
4908;DHT22;2469;51.540;7.364;2022-07-29T06:04:41;21.40;82.30
4908;DHT22;2469;51.540;7.364;2022-07-29T06:07:09;21.10;84.30
4908;DHT22;2469;51.540;7.364;2022-07-29T06:09:37;20.80;86.00
4908;DHT22;2469;51.540;7.364;2022-07-29T06:12:06;21.00;86.60
4908;DHT22;2469;51.540;7.364;2022-07-29T06:14:34;21.00;85.80
4908;DHT22;2469;51.540;7.364;2022-07-29T06:17:03;21.20;86.50
4908;DHT22;2469;51.540;7.364;2022-07-29T06:19:33;21.30;85.90
4908;DHT22;2469;51.540;7.364;2022-07-29T06:22:02;21.20;86.60
4908;DHT22;2469;51.540;7.364;2022-07-29T06:24:30;21.20;87.40
4908;DHT22;2469;51.540;7.364;2022-07-29T06:26:58;21.00;87.30
4908;DHT22;2469;51.540;7.364;2022-07-29T06:29:26;20.60;88.90
4908;DHT22;2469;51.540;7.364;2022-07-29T06:31:54;20.40;89.70
4908;DHT22;2469;51.540;7.364;2022-07-29T06:34:23;20.20;91.00
4908;DHT22;2469;51.540;7.364;2022-07-29T06:36:52;19.70;91.20
4908;DHT22;2469;51.540;7.364;2022-07-29T06:39:20;19.80;92.30
4908;DHT22;2469;51.540;7.364;2022-07-29T06:41:49;20.00;93.00
4908;DHT22;2469;51.540;7.364;2022-07-29T06:44:18;20.20;92.10
4908;DHT22;2469;51.540;7.364;2022-07-29T06:46:46;20.40;91.50
4908;DHT22;2469;51.540;7.364;2022-07-29T06:49:15;20.70;91.30
4908;DHT22;2469;51.540;7.364;2022-07-29T06:51:45;21.00;91.00
4908;DHT22;2469;51.540;7.364;2022-07-29T06:54:13;21.20;90.60
4908;DHT22;2469;51.540;7.364;2022-07-29T06:56:41;21.20;91.10
4908;DHT22;2469;51.540;7.364;2022-07-29T06:59:11;21.10;91.40
4908;DHT22;2469;51.540;7.364;2022-07-29T07:01:41;20.90;92.40
4908;DHT22;2469;51.540;7.364;2022-07-29T07:04:10;20.60;90.80
4908;DHT22;2469;51.540;7.364;2022-07-29T07:06:38;20.60;93.10
4908;DHT22;2469;51.540;7.364;2022-07-29T07:09:08;20.70;92.80
4908;DHT22;2469;51.540;7.364;2022-07-29T07:11:36;20.50;92.20
4908;DHT22;2469;51.540;7.364;2022-07-29T07:14:04;20.70;92.50
4908;DHT22;2469;51.540;7.364;2022-07-29T07:16:32;20.60;93.00
4908;DHT22;2469;51.540;7.364;2022-07-29T07:19:00;20.60;92.60
4908;DHT22;2469;51.540;7.364;2022-07-29T07:21:28;20.60;93.00
4908;DHT22;2469;51.540;7.364;2022-07-29T07:23:57;20.80;93.20
4908;DHT22;2469;51.540;7.364;2022-07-29T07:26:27;21.00;91.40
4908;DHT22;2469;51.540;7.364;2022-07-29T07:28:56;21.00;91.60
4908;DHT22;2469;51.540;7.364;2022-07-29T07:31:24;21.20;92.10
4908;DHT22;2469;51.540;7.364;2022-07-29T07:33:52;21.30;91.90
4908;DHT22;2469;51.540;7.364;2022-07-29T07:36:21;21.50;91.70
4908;DHT22;2469;51.540;7.364;2022-07-29T07:38:49;21.70;91.60
4908;DHT22;2469;51.540;7.364;2022-07-29T07:41:17;21.70;90.40
4908;DHT22;2469;51.540;7.364;2022-07-29T07:43:46;21.80;90.50
4908;DHT22;2469;51.540;7.364;2022-07-29T07:46:14;21.70;88.40
4908;DHT22;2469;51.540;7.364;2022-07-29T07:48:43;21.80;89.70
4908;DHT22;2469;51.540;7.364;2022-07-29T07:51:11;21.80;89.40
4908;DHT22;2469;51.540;7.364;2022-07-29T07:53:39;21.80;90.40
4908;DHT22;2469;51.540;7.364;2022-07-29T07:56:07;22.00;90.50
4908;DHT22;2469;51.540;7.364;2022-07-29T07:58:38;22.10;90.20
4908;DHT22;2469;51.540;7.364;2022-07-29T08:01:07;22.20;90.00
4908;DHT22;2469;51.540;7.364;2022-07-29T08:03:36;22.30;89.70
4908;DHT22;2469;51.540;7.364;2022-07-29T08:06:04;22.40;89.10
4908;DHT22;2469;51.540;7.364;2022-07-29T08:08:32;22.60;88.80
4908;DHT22;2469;51.540;7.364;2022-07-29T08:11:00;22.70;88.30
4908;DHT22;2469;51.540;7.364;2022-07-29T08:13:35;22.80;87.80
4908;DHT22;2469;51.540;7.364;2022-07-29T08:16:04;22.80;88.00
4908;DHT22;2469;51.540;7.364;2022-07-29T08:18:43;22.80;87.10
4908;DHT22;2469;51.540;7.364;2022-07-29T08:21:11;22.80;87.10
4908;DHT22;2469;51.540;7.364;2022-07-29T08:23:41;22.80;86.80
4908;DHT22;2469;51.540;7.364;2022-07-29T08:26:25;22.80;86.70
4908;DHT22;2469;51.540;7.364;2022-07-29T08:28:53;22.80;86.70
4908;DHT22;2469;51.540;7.364;2022-07-29T08:31:21;22.80;86.70
4908;DHT22;2469;51.540;7.364;2022-07-29T08:33:51;22.80;85.80
4908;DHT22;2469;51.540;7.364;2022-07-29T08:36:19;22.80;86.30
4908;DHT22;2469;51.540;7.364;2022-07-29T08:38:48;22.80;85.90
4908;DHT22;2469;51.540;7.364;2022-07-29T08:41:18;22.80;85.90
4908;DHT22;2469;51.540;7.364;2022-07-29T08:43:46;22.90;86.00
4908;DHT22;2469;51.540;7.364;2022-07-29T08:46:14;23.00;85.50
4908;DHT22;2469;51.540;7.364;2022-07-29T08:48:43;23.10;85.30
4908;DHT22;2469;51.540;7.364;2022-07-29T08:51:15;23.20;84.90
4908;DHT22;2469;51.540;7.364;2022-07-29T08:53:45;23.20;84.50
4908;DHT22;2469;51.540;7.364;2022-07-29T08:56:15;23.20;84.30
4908;DHT22;2469;51.540;7.364;2022-07-29T08:58:45;23.30;84.20
4908;DHT22;2469;51.540;7.364;2022-07-29T09:01:22;23.20;84.00
4908;DHT22;2469;51.540;7.364;2022-07-29T09:04:11;23.20;83.90
4908;DHT22;2469;51.540;7.364;2022-07-29T09:06:44;23.20;84.70
4908;DHT22;2469;51.540;7.364;2022-07-29T09:09:13;23.20;84.30
4908;DHT22;2469;51.540;7.364;2022-07-29T09:11:42;23.20;84.40
4908;DHT22;2469;51.540;7.364;2022-07-29T09:14:11;23.20;84.50
4908;DHT22;2469;51.540;7.364;2022-07-29T09:16:44;23.10;84.40
4908;DHT22;2469;51.540;7.364;2022-07-29T09:19:30;23.10;85.20
4908;DHT22;2469;51.540;7.364;2022-07-29T09:22:00;23.20;84.30
4908;DHT22;2469;51.540;7.364;2022-07-29T09:24:43;23.20;84.50
4908;DHT22;2469;51.540;7.364;2022-07-29T09:27:22;23.20;83.70
4908;DHT22;2469;51.540;7.364;2022-07-29T09:29:56;23.40;83.50
4908;DHT22;2469;51.540;7.364;2022-07-29T09:32:25;23.40;83.20
4908;DHT22;2469;51.540;7.364;2022-07-29T09:35:13;23.40;83.20
4908;DHT22;2469;51.540;7.364;2022-07-29T09:37:43;23.50;83.10
4908;DHT22;2469;51.540;7.364;2022-07-29T09:40:13;23.50;82.90
4908;DHT22;2469;51.540;7.364;2022-07-29T09:42:42;23.50;82.90
4908;DHT22;2469;51.540;7.364;2022-07-29T09:45:11;23.50;82.80
4908;DHT22;2469;51.540;7.364;2022-07-29T09:47:44;23.50;82.50
4908;DHT22;2469;51.540;7.364;2022-07-29T09:50:16;23.60;82.50
4908;DHT22;2469;51.540;7.364;2022-07-29T09:52:49;23.40;83.70
4908;DHT22;2469;51.540;7.364;2022-07-29T09:55:18;23.40;83.80
4908;DHT22;2469;51.540;7.364;2022-07-29T09:57:46;23.20;84.20
4908;DHT22;2469;51.540;7.364;2022-07-29T10:00:15;23.30;83.20
4908;DHT22;2469;51.540;7.364;2022-07-29T10:02:46;23.30;83.20
4908;DHT22;2469;51.540;7.364;2022-07-29T10:05:19;23.30;83.60
4908;DHT22;2469;51.540;7.364;2022-07-29T10:07:50;23.10;83.80
4908;DHT22;2469;51.540;7.364;2022-07-29T10:10:24;23.10;84.00
4908;DHT22;2469;51.540;7.364;2022-07-29T10:12:54;23.10;84.30
4908;DHT22;2469;51.540;7.364;2022-07-29T10:15:23;23.00;83.90
4908;DHT22;2469;51.540;7.364;2022-07-29T10:17:53;23.00;83.80
4908;DHT22;2469;51.540;7.364;2022-07-29T10:20:21;22.80;84.70
4908;DHT22;2469;51.540;7.364;2022-07-29T10:22:52;22.80;84.70
4908;DHT22;2469;51.540;7.364;2022-07-29T10:25:21;22.80;85.20
4908;DHT22;2469;51.540;7.364;2022-07-29T10:27:49;22.70;85.90
4908;DHT22;2469;51.540;7.364;2022-07-29T10:30:19;22.80;85.30
4908;DHT22;2469;51.540;7.364;2022-07-29T10:32:58;22.70;87.20
4908;DHT22;2469;51.540;7.364;2022-07-29T10:35:43;22.60;87.00
4908;DHT22;2469;51.540;7.364;2022-07-29T10:38:30;22.40;86.50
4908;DHT22;2469;51.540;7.364;2022-07-29T10:41:12;22.30;84.90
4908;DHT22;2469;51.540;7.364;2022-07-29T10:44:13;22.20;85.70
4908;DHT22;2469;51.540;7.364;2022-07-29T10:46:45;22.20;85.90
4908;DHT22;2469;51.540;7.364;2022-07-29T10:49:15;22.30;85.60
4908;DHT22;2469;51.540;7.364;2022-07-29T10:52:02;22.30;84.50
4908;DHT22;2469;51.540;7.364;2022-07-29T10:54:47;22.40;84.90
4908;DHT22;2469;51.540;7.364;2022-07-29T10:57:22;22.50;84.80
4908;DHT22;2469;51.540;7.364;2022-07-29T11:00:30;22.50;84.70
4908;DHT22;2469;51.540;7.364;2022-07-29T11:02:59;22.60;85.00
4908;DHT22;2469;51.540;7.364;2022-07-29T11:05:52;22.70;84.50
4908;DHT22;2469;51.540;7.364;2022-07-29T11:08:22;22.70;84.10
4908;DHT22;2469;51.540;7.364;2022-07-29T11:14:55;22.80;84.30
4908;DHT22;2469;51.540;7.364;2022-07-29T11:17:24;22.90;84.30
4908;DHT22;2469;51.540;7.364;2022-07-29T11:20:31;22.90;84.10
4908;DHT22;2469;51.540;7.364;2022-07-29T11:22:59;22.90;84.00
4908;DHT22;2469;51.540;7.364;2022-07-29T11:25:28;23.00;83.70
4908;DHT22;2469;51.540;7.364;2022-07-29T11:28:21;23.00;83.60
4908;DHT22;2469;51.540;7.364;2022-07-29T11:30:53;23.00;83.60
4908;DHT22;2469;51.540;7.364;2022-07-29T11:33:29;23.00;83.60
4908;DHT22;2469;51.540;7.364;2022-07-29T11:36:17;22.90;83.30
4908;DHT22;2469;51.540;7.364;2022-07-29T11:39:25;23.00;83.60
4908;DHT22;2469;51.540;7.364;2022-07-29T11:42:39;23.00;83.50
4908;DHT22;2469;51.540;7.364;2022-07-29T11:45:11;23.10;83.10
4908;DHT22;2469;51.540;7.364;2022-07-29T11:48:02;23.00;83.60
4908;DHT22;2469;51.540;7.364;2022-07-29T11:50:51;22.40;83.40
4908;DHT22;2469;51.540;7.364;2022-07-29T11:53:20;22.00;85.40
4908;DHT22;2469;51.540;7.364;2022-07-29T11:55:54;22.10;86.20
4908;DHT22;2469;51.540;7.364;2022-07-29T11:58:24;22.20;86.30
4908;DHT22;2469;51.540;7.364;2022-07-29T12:00:53;22.50;86.40
4908;DHT22;2469;51.540;7.364;2022-07-29T12:03:26;22.70;86.20
4908;DHT22;2469;51.540;7.364;2022-07-29T12:06:03;22.50;87.40
4908;DHT22;2469;51.540;7.364;2022-07-29T12:08:40;22.70;86.90
4908;DHT22;2469;51.540;7.364;2022-07-29T12:11:15;22.80;87.30
4908;DHT22;2469;51.540;7.364;2022-07-29T12:13:47;22.90;87.00
4908;DHT22;2469;51.540;7.364;2022-07-29T12:16:15;22.90;87.20
4908;DHT22;2469;51.540;7.364;2022-07-29T12:19:00;23.00;87.90
4908;DHT22;2469;51.540;7.364;2022-07-29T12:21:35;23.00;88.00
4908;DHT22;2469;51.540;7.364;2022-07-29T12:24:22;22.80;87.90
4908;DHT22;2469;51.540;7.364;2022-07-29T12:26:54;22.80;89.10
4908;DHT22;2469;51.540;7.364;2022-07-29T12:29:22;22.90;88.10
4908;DHT22;2469;51.540;7.364;2022-07-29T12:32:02;22.90;88.60
4908;DHT22;2469;51.540;7.364;2022-07-29T12:34:46;22.40;89.20
4908;DHT22;2469;51.540;7.364;2022-07-29T12:37:14;22.20;89.70
4908;DHT22;2469;51.540;7.364;2022-07-29T12:39:43;22.10;90.30
4908;DHT22;2469;51.540;7.364;2022-07-29T12:42:12;22.00;91.70
4908;DHT22;2469;51.540;7.364;2022-07-29T12:44:45;21.50;91.50
4908;DHT22;2469;51.540;7.364;2022-07-29T12:47:14;21.30;92.00
4908;DHT22;2469;51.540;7.364;2022-07-29T12:49:42;21.30;92.10
4908;DHT22;2469;51.540;7.364;2022-07-29T12:52:25;21.40;92.10
4908;DHT22;2469;51.540;7.364;2022-07-29T12:54:54;21.50;92.10
4908;DHT22;2469;51.540;7.364;2022-07-29T12:57:22;21.50;92.30
4908;DHT22;2469;51.540;7.364;2022-07-29T13:00:07;21.50;92.70
4908;DHT22;2469;51.540;7.364;2022-07-29T13:02:37;21.60;92.20
4908;DHT22;2469;51.540;7.364;2022-07-29T13:05:06;21.90;92.20
4908;DHT22;2469;51.540;7.364;2022-07-29T13:07:37;22.00;91.90
4908;DHT22;2469;51.540;7.364;2022-07-29T13:10:23;22.10;91.40
4908;DHT22;2469;51.540;7.364;2022-07-29T13:13:05;21.80;91.40
4908;DHT22;2469;51.540;7.364;2022-07-29T13:15:34;21.80;92.10
4908;DHT22;2469;51.540;7.364;2022-07-29T13:18:03;21.80;92.40
4908;DHT22;2469;51.540;7.364;2022-07-29T13:20:32;21.70;92.00
4908;DHT22;2469;51.540;7.364;2022-07-29T13:23:01;21.50;92.50
4908;DHT22;2469;51.540;7.364;2022-07-29T13:25:31;21.50;92.50
4908;DHT22;2469;51.540;7.364;2022-07-29T13:28:00;21.80;92.30
4908;DHT22;2469;51.540;7.364;2022-07-29T13:30:27;21.80;92.40
4908;DHT22;2469;51.540;7.364;2022-07-29T13:32:56;22.10;92.20
4908;DHT22;2469;51.540;7.364;2022-07-29T13:35:24;22.20;92.50
4908;DHT22;2469;51.540;7.364;2022-07-29T13:37:51;22.40;92.20
4908;DHT22;2469;51.540;7.364;2022-07-29T13:40:21;22.80;92.00
4908;DHT22;2469;51.540;7.364;2022-07-29T13:42:49;23.00;91.50
4908;DHT22;2469;51.540;7.364;2022-07-29T13:45:17;23.00;91.80
4908;DHT22;2469;51.540;7.364;2022-07-29T13:47:45;23.10;91.80
4908;DHT22;2469;51.540;7.364;2022-07-29T13:50:15;23.20;91.00
4908;DHT22;2469;51.540;7.364;2022-07-29T13:52:43;23.00;90.90
4908;DHT22;2469;51.540;7.364;2022-07-29T13:55:11;23.00;91.40
4908;DHT22;2469;51.540;7.364;2022-07-29T13:57:40;23.20;91.10
4908;DHT22;2469;51.540;7.364;2022-07-29T14:00:09;23.40;90.80
4908;DHT22;2469;51.540;7.364;2022-07-29T14:02:37;23.50;90.90
4908;DHT22;2469;51.540;7.364;2022-07-29T14:05:07;23.50;90.80
4908;DHT22;2469;51.540;7.364;2022-07-29T14:07:36;23.50;90.30
4908;DHT22;2469;51.540;7.364;2022-07-29T14:10:06;23.40;90.50
4908;DHT22;2469;51.540;7.364;2022-07-29T14:12:34;23.40;90.70
4908;DHT22;2469;51.540;7.364;2022-07-29T14:15:04;23.40;91.00
4908;DHT22;2469;51.540;7.364;2022-07-29T14:17:32;23.40;90.20
4908;DHT22;2469;51.540;7.364;2022-07-29T14:20:00;23.10;90.30
4908;DHT22;2469;51.540;7.364;2022-07-29T14:22:28;22.90;89.50
4908;DHT22;2469;51.540;7.364;2022-07-29T14:24:56;22.80;89.60
4908;DHT22;2469;51.540;7.364;2022-07-29T14:27:31;22.90;89.60
4908;DHT22;2469;51.540;7.364;2022-07-29T14:30:06;22.80;89.90
4908;DHT22;2469;51.540;7.364;2022-07-29T14:32:35;22.80;90.20
4908;DHT22;2469;51.540;7.364;2022-07-29T14:35:03;22.80;89.00
4908;DHT22;2469;51.540;7.364;2022-07-29T14:37:31;22.80;88.40
4908;DHT22;2469;51.540;7.364;2022-07-29T14:40:07;22.80;87.50
4908;DHT22;2469;51.540;7.364;2022-07-29T14:42:35;23.00;90.00
4908;DHT22;2469;51.540;7.364;2022-07-29T14:45:07;22.90;87.70
4908;DHT22;2469;51.540;7.364;2022-07-29T14:47:36;22.90;89.00
4908;DHT22;2469;51.540;7.364;2022-07-29T14:50:05;23.00;89.00
4908;DHT22;2469;51.540;7.364;2022-07-29T14:52:33;23.10;87.70
4908;DHT22;2469;51.540;7.364;2022-07-29T14:55:02;23.20;88.40
4908;DHT22;2469;51.540;7.364;2022-07-29T14:57:30;23.40;87.40
4908;DHT22;2469;51.540;7.364;2022-07-29T14:59:58;23.30;86.70
4908;DHT22;2469;51.540;7.364;2022-07-29T15:02:27;23.50;86.80
4908;DHT22;2469;51.540;7.364;2022-07-29T15:05:15;23.50;85.80
4908;DHT22;2469;51.540;7.364;2022-07-29T15:07:43;23.40;85.30
4908;DHT22;2469;51.540;7.364;2022-07-29T15:10:11;23.20;86.90
4908;DHT22;2469;51.540;7.364;2022-07-29T15:12:41;23.30;87.90
4908;DHT22;2469;51.540;7.364;2022-07-29T15:15:09;23.40;87.20
4908;DHT22;2469;51.540;7.364;2022-07-29T15:17:38;23.50;87.10
4908;DHT22;2469;51.540;7.364;2022-07-29T15:20:08;23.50;86.80
4908;DHT22;2469;51.540;7.364;2022-07-29T15:22:36;23.70;86.20
4908;DHT22;2469;51.540;7.364;2022-07-29T15:25:05;23.60;86.00
4908;DHT22;2469;51.540;7.364;2022-07-29T15:27:34;23.80;85.90
4908;DHT22;2469;51.540;7.364;2022-07-29T15:30:03;23.60;84.70
4908;DHT22;2469;51.540;7.364;2022-07-29T15:32:31;23.50;86.20
4908;DHT22;2469;51.540;7.364;2022-07-29T15:35:00;23.50;85.50
4908;DHT22;2469;51.540;7.364;2022-07-29T15:37:28;23.70;85.80
4908;DHT22;2469;51.540;7.364;2022-07-29T15:40:15;23.60;82.90
4908;DHT22;2469;51.540;7.364;2022-07-29T15:42:43;23.70;87.50
4908;DHT22;2469;51.540;7.364;2022-07-29T15:45:11;23.60;82.90
4908;DHT22;2469;51.540;7.364;2022-07-29T15:47:39;23.50;83.10
4908;DHT22;2469;51.540;7.364;2022-07-29T15:50:09;23.60;87.50
4908;DHT22;2469;51.540;7.364;2022-07-29T15:52:41;23.60;83.90
4908;DHT22;2469;51.540;7.364;2022-07-29T15:55:10;23.60;83.90
4908;DHT22;2469;51.540;7.364;2022-07-29T15:57:38;23.50;83.80
4908;DHT22;2469;51.540;7.364;2022-07-29T16:00:07;23.70;91.00
4908;DHT22;2469;51.540;7.364;2022-07-29T16:02:36;23.80;84.80
4908;DHT22;2469;51.540;7.364;2022-07-29T16:05:05;23.80;88.60
4908;DHT22;2469;51.540;7.364;2022-07-29T16:07:36;23.80;84.90
4908;DHT22;2469;51.540;7.364;2022-07-29T16:10:05;23.90;87.80
4908;DHT22;2469;51.540;7.364;2022-07-29T16:12:33;24.00;83.40
4908;DHT22;2469;51.540;7.364;2022-07-29T16:15:01;24.10;90.40
4908;DHT22;2469;51.540;7.364;2022-07-29T16:17:35;24.40;84.70
4908;DHT22;2469;51.540;7.364;2022-07-29T16:20:05;24.40;86.70
4908;DHT22;2469;51.540;7.364;2022-07-29T16:22:35;24.60;90.60
4908;DHT22;2469;51.540;7.364;2022-07-29T16:25:04;24.80;91.10
4908;DHT22;2469;51.540;7.364;2022-07-29T16:27:32;24.80;82.00
4908;DHT22;2469;51.540;7.364;2022-07-29T16:30:05;24.80;89.90
4908;DHT22;2469;51.540;7.364;2022-07-29T16:32:33;24.70;79.30